Time;durP1;ratioP1;P1;durP2;ratioP2;P2;SDS_P1;SDS_P2;PMS_P1;PMS_P2;Temp;Humidity;BMP_temperature;BMP_pressure;BME280_temperature;BME280_humidity;BME280_pressure;Samples;Min_cycle;Max_cycle;Signal;HPM_P1;HPM_P2
2023/01/17 00:00:10;;;;;;;3.45;0.77;;;2.70;99.90;;;;;;5071241;28;20253;-46
2023/01/17 00:02:36;;;;;;;0.73;0.43;;;2.80;99.90;;;;;;5070978;28;20162;-46
2023/01/17 00:10:30;;;;;;;1.58;1.10;;;2.90;99.90;;;;;;5074743;28;20169;-47
2023/01/17 00:13:01;;;;;;;1.35;1.25;;;3.20;99.90;;;;;;5075297;28;20174;-46
2023/01/17 00:15:28;;;;;;;1.40;1.20;;;3.30;99.90;;;;;;5074564;28;20573;-46
2023/01/17 00:17:54;;;;;;;2.10;1.52;;;3.30;99.90;;;;;;5075263;28;20166;-46
2023/01/17 00:26:09;;;;;;;3.05;1.40;;;3.50;99.90;;;;;;5074555;28;20711;-46
2023/01/17 01:35:35;;;;;;;1.55;1.15;;;3.70;99.90;;;;;;5073142;28;20209;-46
2023/01/17 01:38:01;;;;;;;3.90;1.33;;;3.60;99.90;;;;;;5073194;28;20173;-45
2023/01/17 01:40:27;;;;;;;1.35;0.82;;;3.60;99.90;;;;;;5073013;28;20216;-45
2023/01/17 01:42:55;;;;;;;2.00;1.40;;;3.50;99.90;;;;;;5073374;28;20174;-45
2023/01/17 01:45:27;;;;;;;3.75;0.95;;;3.50;99.90;;;;;;5073347;28;20638;-45
2023/01/17 01:48:01;;;;;;;4.15;1.20;;;3.40;99.90;;;;;;5073278;28;20181;-46
2023/01/17 01:50:29;;;;;;;1.17;0.95;;;3.30;99.90;;;;;;5072870;28;20165;-45
2023/01/17 01:52:59;;;;;;;3.03;1.30;;;3.30;99.90;;;;;;5073420;28;20166;-46
2023/01/17 01:55:31;;;;;;;4.18;1.27;;;3.30;99.90;;;;;;5073149;28;20206;-46
2023/01/17 01:58:03;;;;;;;1.30;0.73;;;3.40;99.90;;;;;;5072771;28;20211;-45
2023/01/17 02:00:33;;;;;;;1.25;1.15;;;3.40;99.90;;;;;;5072755;28;20216;-45
2023/01/17 02:03:03;;;;;;;1.90;0.90;;;3.40;99.90;;;;;;5072451;28;20284;-45
2023/01/17 02:05:30;;;;;;;3.78;1.10;;;3.40;99.90;;;;;;5072894;28;20518;-45
2023/01/17 02:07:58;;;;;;;1.90;1.70;;;3.40;99.90;;;;;;5072579;28;20174;-45
2023/01/17 02:10:23;;;;;;;1.45;1.20;;;3.40;99.90;;;;;;5072905;28;20173;-45
2023/01/17 02:12:51;;;;;;;1.90;1.33;;;3.40;99.90;;;;;;5072451;28;20174;-45
2023/01/17 02:15:17;;;;;;;2.65;1.00;;;3.50;99.90;;;;;;5072329;28;20197;-45
2023/01/17 02:17:56;;;;;;;2.85;1.33;;;3.30;99.90;;;;;;5072411;28;20188;-45
2023/01/17 02:20:57;;;;;;;5.90;1.40;;;3.40;99.90;;;;;;5072710;28;20174;-45
2023/01/17 02:23:36;;;;;;;1.52;1.02;;;3.40;99.90;;;;;;5059426;28;20185;-45
2023/01/17 02:26:28;;;;;;;1.20;1.10;;;3.50;99.90;;;;;;5072301;28;20162;-45
2023/01/17 02:28:53;;;;;;;3.63;1.33;;;3.30;99.90;;;;;;5066081;28;20182;-45
2023/01/17 02:31:47;;;;;;;3.65;1.30;;;3.30;99.90;;;;;;5072114;28;20196;-45
2023/01/17 02:34:38;;;;;;;1.77;1.23;;;3.30;99.90;;;;;;5054203;28;20225;-46
2023/01/17 02:37:16;;;;;;;4.63;1.52;;;3.50;99.90;;;;;;5070781;28;20193;-45
2023/01/17 02:39:58;;;;;;;2.53;1.58;;;3.40;99.90;;;;;;5072279;28;20165;-46
2023/01/17 02:42:30;;;;;;;1.30;1.13;;;3.30;99.90;;;;;;5072371;28;20170;-45
2023/01/17 02:44:56;;;;;;;2.00;1.75;;;3.30;99.90;;;;;;5072150;28;20256;-47
2023/01/17 02:47:28;;;;;;;4.65;2.20;;;3.30;99.90;;;;;;5072310;28;20241;-45
2023/01/17 02:50:00;;;;;;;3.67;2.13;;;3.40;99.90;;;;;;5072172;28;20162;-45
2023/01/17 02:53:00;;;;;;;1.50;1.40;;;3.40;99.90;;;;;;5072062;28;20166;-45
2023/01/17 02:55:35;;;;;;;2.17;1.92;;;3.30;99.90;;;;;;5071704;28;20214;-45
2023/01/17 02:58:14;;;;;;;3.00;1.98;;;3.40;99.90;;;;;;5071856;28;20162;-45
2023/01/17 03:00:49;;;;;;;4.60;2.35;;;3.50;99.90;;;;;;5071711;28;20180;-45
2023/01/17 03:03:42;;;;;;;4.85;2.00;;;3.40;99.90;;;;;;5071802;28;21138;-46
2023/01/17 03:06:16;;;;;;;3.78;2.15;;;3.30;99.90;;;;;;5071619;28;20170;-46
2023/01/17 03:08:44;;;;;;;5.38;2.42;;;3.20;99.90;;;;;;5071647;28;20529;-45
2023/01/17 03:11:11;;;;;;;4.57;3.08;;;3.30;99.90;;;;;;5071563;28;20181;-46
2023/01/17 03:13:36;;;;;;;4.18;3.17;;;3.20;99.90;;;;;;5071650;28;20212;-45
2023/01/17 03:16:06;;;;;;;5.47;2.97;;;3.30;99.90;;;;;;5071623;28;20227;-45
2023/01/17 03:18:33;;;;;;;4.50;2.90;;;3.20;99.90;;;;;;5071555;28;20174;-45
2023/01/17 03:20:59;;;;;;;10.40;3.65;;;3.20;99.90;;;;;;5071496;28;20662;-46
2023/01/17 03:23:24;;;;;;;4.82;3.00;;;3.20;99.90;;;;;;5071498;28;20235;-45
2023/01/17 03:25:50;;;;;;;2.88;2.50;;;3.10;99.90;;;;;;5071914;28;20174;-45
2023/01/17 03:28:15;;;;;;;10.60;4.15;;;3.00;99.90;;;;;;5071438;28;20174;-46
2023/01/17 03:30:41;;;;;;;6.03;3.85;;;3.10;99.90;;;;;;5071716;28;20178;-46
2023/01/17 03:33:06;;;;;;;6.18;3.10;;;3.00;99.90;;;;;;5071422;28;20245;-46
2023/01/17 03:35:32;;;;;;;3.05;2.22;;;3.00;99.90;;;;;;5071343;28;20288;-46
2023/01/17 03:37:58;;;;;;;5.30;2.78;;;3.10;99.90;;;;;;5071388;28;20228;-45
2023/01/17 03:40:23;;;;;;;6.03;3.90;;;3.10;99.90;;;;;;5075502;28;20248;-46
2023/01/17 03:42:49;;;;;;;4.82;3.50;;;3.20;99.90;;;;;;5075358;28;20192;-45
2023/01/17 03:45:15;;;;;;;3.80;2.38;;;3.10;99.90;;;;;;5075300;28;20162;-46
2023/01/17 03:47:40;;;;;;;5.70;3.25;;;3.10;99.90;;;;;;5075528;28;20170;-46
2023/01/17 03:50:06;;;;;;;5.30;3.10;;;3.00;99.90;;;;;;5075054;28;20189;-45
2023/01/17 03:52:32;;;;;;;5.63;3.17;;;3.10;99.90;;;;;;5075043;28;20532;-45
2023/01/17 03:54:58;;;;;;;7.28;3.10;;;3.10;99.90;;;;;;5075044;28;20194;-45
2023/01/17 03:57:24;;;;;;;4.32;2.90;;;3.10;99.90;;;;;;5075693;28;20163;-45
2023/01/17 03:59:49;;;;;;;3.38;2.80;;;0.20;99.90;;;;;;5075361;28;20185;-46
2023/01/17 04:02:15;;;;;;;6.10;3.05;;;3.10;99.90;;;;;;5074896;28;20170;-45
2023/01/17 04:04:40;;;;;;;7.80;3.13;;;3.10;99.90;;;;;;5074848;28;20225;-46
2023/01/17 04:07:06;;;;;;;4.13;3.00;;;3.10;99.90;;;;;;5074897;28;20173;-46
2023/01/17 04:09:33;;;;;;;4.65;3.08;;;3.10;99.90;;;;;;5074938;28;20169;-46
2023/01/17 04:12:00;;;;;;;5.35;3.20;;;3.10;99.90;;;;;;5075021;28;20176;-46
2023/01/17 04:14:25;;;;;;;4.43;3.15;;;3.10;99.90;;;;;;5074625;28;20201;-46
2023/01/17 04:16:52;;;;;;;5.88;2.97;;;3.20;99.90;;;;;;5075081;28;20177;-46
2023/01/17 04:19:17;;;;;;;6.13;2.63;;;3.20;99.90;;;;;;5074617;28;20253;-45
2023/01/17 04:21:43;;;;;;;5.35;2.80;;;3.00;99.90;;;;;;5074740;28;20197;-46
2023/01/17 04:24:08;;;;;;;6.75;3.95;;;3.00;99.90;;;;;;5074578;28;20166;-46
2023/01/17 04:26:34;;;;;;;12.85;3.08;;;3.20;99.90;;;;;;5074519;28;20166;-46
2023/01/17 04:29:00;;;;;;;8.30;3.30;;;3.00;99.90;;;;;;5074446;28;20208;-45
2023/01/17 04:31:25;;;;;;;4.25;3.42;;;6.30;99.90;;;;;;5074434;28;20178;-46
2023/01/17 04:33:51;;;;;;;6.60;3.95;;;3.10;99.90;;;;;;5074701;28;20198;-45
2023/01/17 04:36:16;;;;;;;5.22;3.63;;;3.00;99.90;;;;;;5074408;28;20533;-46
2023/01/17 04:38:42;;;;;;;9.88;4.05;;;3.00;99.90;;;;;;5074548;28;20162;-45
2023/01/17 04:41:08;;;;;;;5.75;3.88;;;3.10;99.90;;;;;;5074394;28;20640;-46
2023/01/17 04:43:33;;;;;;;12.40;5.90;;;2.90;99.90;;;;;;5074210;28;20158;-46
2023/01/17 04:46:00;;;;;;;9.23;4.70;;;3.00;99.90;;;;;;5074105;28;20166;-46
2023/01/17 04:48:26;;;;;;;5.57;3.45;;;3.00;99.90;;;;;;5074186;28;20630;-45
2023/01/17 04:50:58;;;;;;;4.63;3.30;;;3.10;99.90;;;;;;5073675;28;20177;-46
2023/01/17 04:53:23;;;;;;;7.85;4.07;;;3.00;99.90;;;;;;5074319;28;20162;-45
2023/01/17 04:55:49;;;;;;;6.10;3.90;;;2.90;99.90;;;;;;5074288;28;20658;-46
2023/01/17 04:58:14;;;;;;;5.18;3.47;;;3.00;99.90;;;;;;5073921;28;20162;-46
2023/01/17 05:00:40;;;;;;;6.75;3.80;;;3.00;99.90;;;;;;5074103;28;20244;-46
2023/01/17 05:03:06;;;;;;;8.85;3.83;;;2.90;99.90;;;;;;5073763;28;20238;-46
2023/01/17 05:05:31;;;;;;;5.53;4.10;;;2.90;99.90;;;;;;5074225;28;20192;-46
2023/01/17 05:07:57;;;;;;;6.20;4.10;;;2.90;99.90;;;;;;5073642;28;20168;-46
2023/01/17 05:10:24;;;;;;;4.82;4.00;;;3.00;99.90;;;;;;5074122;28;20162;-46
2023/01/17 05:12:57;;;;;;;11.38;4.32;;;1.90;99.90;;;;;;5073946;28;20162;-46
2023/01/17 05:15:23;;;;;;;8.27;3.50;;;2.90;99.90;;;;;;5073944;28;20198;-46
2023/01/17 05:17:51;;;;;;;6.32;3.42;;;2.90;99.90;;;;;;5073881;28;20241;-46
2023/01/17 05:20:17;;;;;;;9.25;4.25;;;2.90;99.90;;;;;;5073791;28;20585;-46
2023/01/17 05:22:42;;;;;;;6.25;4.07;;;3.00;99.90;;;;;;5073442;28;20194;-45
2023/01/17 05:25:08;;;;;;;6.03;3.78;;;3.00;99.90;;;;;;5073377;28;20227;-46
2023/01/17 05:27:33;;;;;;;9.10;4.25;;;2.90;99.90;;;;;;5073401;28;20195;-46
2023/01/17 05:29:59;;;;;;;8.13;4.22;;;2.90;99.90;;;;;;5073365;28;20166;-46
2023/01/17 05:32:24;;;;;;;8.90;4.35;;;2.80;99.90;;;;;;5073529;28;20220;-45
2023/01/17 05:34:50;;;;;;;7.88;3.67;;;2.80;99.90;;;;;;5073508;28;20783;-46
2023/01/17 05:37:16;;;;;;;7.07;4.10;;;2.80;99.90;;;;;;5073056;28;20657;-46
2023/01/17 05:39:42;;;;;;;5.07;3.58;;;2.90;99.90;;;;;;5073186;28;20252;-45
2023/01/17 05:42:07;;;;;;;12.02;4.75;;;2.80;99.90;;;;;;5072968;28;20168;-45
2023/01/17 05:44:33;;;;;;;5.85;3.83;;;2.90;99.90;;;;;;5072886;28;20237;-46
2023/01/17 05:46:58;;;;;;;9.05;4.80;;;2.90;99.90;;;;;;5073133;28;20630;-45
2023/01/17 05:49:24;;;;;;;7.68;4.07;;;2.70;99.90;;;;;;5072803;28;20178;-45
2023/01/17 05:51:50;;;;;;;6.53;4.13;;;2.70;99.90;;;;;;5073048;28;20165;-46
2023/01/17 05:54:16;;;;;;;5.68;4.03;;;2.70;99.90;;;;;;5072545;28;20193;-45
2023/01/17 05:56:41;;;;;;;5.80;4.40;;;2.70;99.90;;;;;;5072620;28;20543;-45
2023/01/17 05:59:07;;;;;;;8.07;3.33;;;2.70;99.90;;;;;;5072701;28;20249;-45
2023/01/17 06:01:32;;;;;;;3.85;2.67;;;2.60;99.90;;;;;;5072502;28;20626;-45
2023/01/17 06:03:58;;;;;;;5.75;3.45;;;2.50;99.90;;;;;;5072459;28;20549;-45
2023/01/17 06:06:23;;;;;;;9.10;4.68;;;2.50;99.90;;;;;;5072580;28;20530;-45
2023/01/17 06:08:49;;;;;;;5.93;4.45;;;2.60;99.90;;;;;;5073038;28;20629;-45
2023/01/17 06:11:15;;;;;;;6.35;4.13;;;2.60;99.90;;;;;;5072443;28;20177;-45
2023/01/17 06:13:40;;;;;;;8.60;4.38;;;2.50;99.90;;;;;;5072625;28;20165;-45
2023/01/17 06:16:06;;;;;;;9.90;4.65;;;2.60;99.90;;;;;;5072457;28;20412;-45
2023/01/17 06:18:31;;;;;;;6.22;4.25;;;2.50;99.90;;;;;;5072337;28;20533;-45
2023/01/17 06:20:57;;;;;;;10.32;5.35;;;2.40;99.90;;;;;;5072352;28;20202;-46
2023/01/17 06:23:24;;;;;;;7.47;4.25;;;2.40;99.90;;;;;;5072611;28;20166;-45
2023/01/17 06:25:50;;;;;;;9.00;4.47;;;2.40;99.90;;;;;;5072731;28;20267;-45
2023/01/17 06:28:18;;;;;;;7.53;4.88;;;2.40;99.90;;;;;;5072131;28;20618;-45
2023/01/17 06:30:44;;;;;;;9.35;4.68;;;2.40;99.90;;;;;;5072043;28;20166;-45
2023/01/17 06:33:11;;;;;;;9.18;5.00;;;2.40;99.90;;;;;;5072092;28;20162;-45
2023/01/17 06:35:39;;;;;;;10.38;4.35;;;2.30;99.90;;;;;;5071947;28;20224;-45
2023/01/17 06:38:04;;;;;;;5.28;4.03;;;2.40;99.90;;;;;;5072324;28;20228;-45
2023/01/17 06:40:30;;;;;;;8.07;5.20;;;2.40;99.90;;;;;;5072000;28;20205;-45
2023/01/17 06:43:03;;;;;;;7.50;4.90;;;2.30;99.90;;;;;;5071975;28;20262;-45
2023/01/17 06:45:30;;;;;;;12.90;3.95;;;2.20;99.90;;;;;;5071872;28;20249;-45
2023/01/17 06:47:57;;;;;;;11.80;5.15;;;2.20;99.90;;;;;;5071895;28;20609;-45
2023/01/17 06:50:24;;;;;;;11.52;4.93;;;2.20;99.90;;;;;;5072102;28;20174;-45
2023/01/17 06:52:55;;;;;;;10.38;4.40;;;2.20;99.90;;;;;;5072398;28;20174;-45
2023/01/17 06:55:20;;;;;;;9.85;5.05;;;2.20;99.90;;;;;;5071933;28;20202;-45
2023/01/17 06:57:47;;;;;;;12.15;4.72;;;2.20;99.90;;;;;;5071656;28;20162;-46
2023/01/17 07:00:13;;;;;;;7.38;4.43;;;2.10;99.90;;;;;;5071902;28;20174;-45
2023/01/17 07:02:39;;;;;;;9.23;4.32;;;2.10;99.90;;;;;;5070186;28;20166;-45
2023/01/17 07:05:05;;;;;;;6.78;3.42;;;2.20;99.90;;;;;;5071643;28;20181;-45
2023/01/17 07:07:31;;;;;;;7.13;4.07;;;2.10;99.90;;;;;;5071539;28;20177;-45
2023/01/17 07:09:57;;;;;;;11.90;5.35;;;2.10;99.90;;;;;;5071606;28;20223;-45
2023/01/17 07:12:23;;;;;;;10.57;4.53;;;2.20;99.90;;;;;;5072153;28;20166;-45
2023/01/17 07:14:48;;;;;;;5.72;3.97;;;2.10;99.90;;;;;;5071391;28;20201;-45
2023/01/17 07:17:14;;;;;;;12.07;4.35;;;2.10;99.90;;;;;;5070485;28;20170;-45
2023/01/17 07:19:39;;;;;;;8.07;4.03;;;2.10;99.90;;;;;;5071343;28;20172;-45
2023/01/17 07:22:05;;;;;;;8.80;4.38;;;2.20;99.90;;;;;;5071722;28;20178;-45
2023/01/17 07:24:31;;;;;;;9.02;4.60;;;2.20;99.90;;;;;;5071492;28;20170;-46
2023/01/17 07:26:57;;;;;;;10.68;4.03;;;2.20;99.90;;;;;;5071456;28;20181;-45
2023/01/17 07:29:22;;;;;;;7.00;3.78;;;2.20;99.90;;;;;;5071882;28;20174;-45
2023/01/17 07:31:48;;;;;;;6.15;4.03;;;2.20;99.90;;;;;;5071650;28;20162;-46
2023/01/17 07:34:13;;;;;;;10.10;4.40;;;2.20;99.90;;;;;;5071266;28;20189;-46
2023/01/17 07:36:39;;;;;;;9.88;4.82;;;2.30;99.90;;;;;;5071229;28;20703;-46
2023/01/17 07:39:05;;;;;;;8.77;4.90;;;2.40;99.90;;;;;;5071359;28;20177;-45
2023/01/17 07:41:31;;;;;;;8.07;4.00;;;2.30;99.90;;;;;;5071338;28;20166;-45
2023/01/17 07:43:58;;;;;;;14.02;4.25;;;2.30;99.90;;;;;;5071134;28;20656;-46
2023/01/17 07:46:23;;;;;;;10.18;4.18;;;2.40;99.90;;;;;;5071269;28;20174;-45
2023/01/17 07:48:49;;;;;;;7.25;4.30;;;2.50;99.90;;;;;;5071806;28;20173;-45
2023/01/17 07:51:16;;;;;;;6.72;4.05;;;2.50;99.90;;;;;;5071147;28;20162;-46
2023/01/17 07:53:42;;;;;;;9.45;3.95;;;2.50;99.90;;;;;;5071349;28;20189;-46
2023/01/17 07:56:08;;;;;;;15.48;4.63;;;2.50;99.90;;;;;;5071145;28;20529;-46
2023/01/17 07:58:34;;;;;;;10.02;4.10;;;2.50;99.90;;;;;;5071128;28;20168;-46
2023/01/17 08:01:09;;;;;;;7.57;4.50;;;2.60;99.90;;;;;;5071134;28;20166;-46
2023/01/17 08:03:38;;;;;;;11.82;3.65;;;2.60;99.90;;;;;;5070989;28;20270;-45
2023/01/17 08:06:25;;;;;;;9.82;3.90;;;2.60;99.90;;;;;;5060273;28;20256;-45
2023/01/17 08:08:57;;;;;;;18.17;3.95;;;2.60;99.90;;;;;;5053487;28;20206;-47
2023/01/17 08:11:23;;;;;;;6.05;3.42;;;2.60;99.90;;;;;;5069175;28;20176;-47
2023/01/17 08:13:55;;;;;;;9.05;3.75;;;2.70;99.90;;;;;;5069469;28;20162;-47
2023/01/17 08:16:20;;;;;;;6.45;3.30;;;2.70;99.90;;;;;;5069698;28;20178;-45
2023/01/17 08:18:46;;;;;;;8.43;3.30;;;2.80;99.90;;;;;;5069215;28;20579;-46
2023/01/17 08:21:14;;;;;;;7.25;3.72;;;2.80;99.90;;;;;;5069138;28;20197;-46
2023/01/17 08:23:39;;;;;;;7.68;4.00;;;2.80;99.90;;;;;;5069598;28;20170;-45
2023/01/17 08:26:05;;;;;;;6.65;3.33;;;2.80;99.90;;;;;;5070724;28;20275;-45
2023/01/17 08:28:31;;;;;;;7.82;3.10;;;2.70;99.90;;;;;;5072781;28;20188;-45
2023/01/17 08:30:56;;;;;;;6.13;3.50;;;2.70;99.90;;;;;;5071840;28;20213;-43
2023/01/17 08:33:22;;;;;;;9.55;3.53;;;2.80;99.90;;;;;;5072836;28;20197;-46
2023/01/17 08:35:54;;;;;;;6.20;4.00;;;2.70;99.90;;;;;;5071317;28;20259;-47
2023/01/17 08:38:22;;;;;;;7.40;3.67;;;2.90;99.90;;;;;;5072849;28;20244;-44
2023/01/17 08:40:48;;;;;;;10.07;3.72;;;3.00;99.90;;;;;;5072988;28;20455;-44
2023/01/17 08:43:14;;;;;;;8.13;4.00;;;3.00;99.90;;;;;;5072348;28;20572;-45
2023/01/17 08:45:42;;;;;;;10.82;3.75;;;3.10;99.90;;;;;;5072578;28;20162;-45
2023/01/17 08:48:08;;;;;;;7.07;3.30;;;3.20;99.90;;;;;;5072210;28;20238;-44
2023/01/17 08:50:34;;;;;;;5.40;3.20;;;3.10;99.90;;;;;;5072525;28;20202;-49
2023/01/17 08:52:59;;;;;;;5.15;3.00;;;3.10;99.90;;;;;;5072104;28;20162;-45
2023/01/17 08:55:25;;;;;;;6.00;3.50;;;3.10;99.90;;;;;;5072295;28;20271;-45
2023/01/17 08:57:51;;;;;;;6.40;3.15;;;3.10;99.90;;;;;;5072605;28;20678;-47
2023/01/17 09:00:17;;;;;;;5.05;3.08;;;6.50;99.90;;;;;;5072116;28;20162;-45
2023/01/17 09:02:42;;;;;;;7.35;3.83;;;3.10;99.90;;;;;;5072035;28;20706;-45
2023/01/17 09:05:08;;;;;;;5.20;3.45;;;3.20;99.90;;;;;;5072003;28;20276;-42
2023/01/17 09:07:34;;;;;;;9.50;3.33;;;3.10;99.90;;;;;;5072237;28;20185;-45
2023/01/17 09:10:00;;;;;;;3.53;2.90;;;3.10;99.90;;;;;;5072000;28;20588;-44
2023/01/17 09:12:30;;;;;;;6.50;3.58;;;3.20;99.90;;;;;;5072147;28;20180;-44
2023/01/17 09:14:55;;;;;;;10.77;3.90;;;3.20;99.90;;;;;;5071879;28;20258;-45
2023/01/17 09:17:21;;;;;;;8.73;3.92;;;3.30;99.90;;;;;;5072043;28;20162;-44
2023/01/17 09:19:47;;;;;;;3.70;2.72;;;3.20;99.90;;;;;;5071793;28;20174;-45
2023/01/17 09:22:13;;;;;;;5.03;3.50;;;3.20;99.90;;;;;;5071814;28;20630;-44
2023/01/17 09:24:39;;;;;;;8.45;3.90;;;3.20;99.90;;;;;;5071925;28;20185;-44
2023/01/17 09:27:05;;;;;;;6.60;3.30;;;3.20;99.90;;;;;;5070166;28;20531;-45
2023/01/17 09:29:31;;;;;;;9.05;3.67;;;3.20;99.90;;;;;;5071724;28;20166;-44
2023/01/17 09:31:56;;;;;;;7.63;3.45;;;3.30;99.90;;;;;;5071635;28;20178;-45
2023/01/17 09:34:25;;;;;;;5.63;3.20;;;3.30;99.90;;;;;;5071785;28;20299;-44
2023/01/17 09:36:50;;;;;;;9.32;4.40;;;3.40;99.90;;;;;;5071346;28;20253;-44
2023/01/17 09:39:16;;;;;;;12.45;4.30;;;3.30;99.90;;;;;;5071385;28;20668;-44
2023/01/17 09:42:00;;;;;;;5.57;3.55;;;3.30;99.90;;;;;;5071484;28;20170;-45
2023/01/17 09:44:43;;;;;;;8.07;3.17;;;3.40;99.90;;;;;;5071279;28;20181;-45
2023/01/17 09:47:21;;;;;;;5.70;3.58;;;3.40;99.90;;;;;;5072361;28;20158;-45
2023/01/17 09:49:47;;;;;;;9.15;3.63;;;3.50;99.90;;;;;;5073539;28;20191;-45
2023/01/17 09:52:19;;;;;;;9.00;4.22;;;3.50;99.90;;;;;;5073060;28;20249;-46
2023/01/17 09:54:47;;;;;;;9.75;4.00;;;3.60;99.90;;;;;;5072909;28;20291;-46
2023/01/17 09:57:19;;;;;;;13.57;4.05;;;3.60;99.90;;;;;;5072626;28;20517;-45
2023/01/17 10:00:14;;;;;;;13.60;4.40;;;3.70;99.90;;;;;;5072653;28;20165;-45
2023/01/17 10:03:12;;;;;;;8.77;3.85;;;3.70;99.90;;;;;;5072597;28;20197;-45
2023/01/17 10:05:57;;;;;;;7.47;3.67;;;3.90;99.90;;;;;;5072675;28;20524;-45
2023/01/17 10:09:02;;;;;;;7.53;3.45;;;3.90;99.90;;;;;;5072577;28;20174;-45
2023/01/17 10:11:35;;;;;;;10.93;3.30;;;4.10;99.90;;;;;;5072508;28;20173;-45
2023/01/17 10:14:09;;;;;;;10.73;3.55;;;4.00;99.90;;;;;;5072374;28;20194;-45
2023/01/17 10:16:56;;;;;;;7.78;3.50;;;4.10;99.90;;;;;;5072370;28;20170;-45
2023/01/17 10:19:43;;;;;;;4.85;2.70;;;4.30;99.90;;;;;;5072702;28;20204;-45
2023/01/17 10:22:48;;;;;;;5.95;3.92;;;4.50;99.90;;;;;;5072358;28;20158;-45
2023/01/17 10:25:32;;;;;;;7.85;2.90;;;4.70;99.90;;;;;;5072229;28;20691;-46
2023/01/17 10:28:17;;;;;;;7.13;3.13;;;4.70;99.90;;;;;;5072611;28;20177;-46
2023/01/17 10:30:56;;;;;;;11.10;3.17;;;4.60;99.90;;;;;;5071899;28;20174;-46
2023/01/17 10:33:34;;;;;;;5.78;2.60;;;4.60;99.90;;;;;;5072219;28;20169;-45
2023/01/17 10:36:06;;;;;;;5.78;2.90;;;4.70;99.90;;;;;;5072131;28;20255;-45
2023/01/17 10:38:34;;;;;;;5.57;2.70;;;4.80;99.90;;;;;;5072194;28;20253;-45
2023/01/17 10:41:13;;;;;;;5.18;2.70;;;4.80;99.90;;;;;;5072288;28;20170;-45
2023/01/17 10:44:01;;;;;;;10.27;3.35;;;4.90;99.90;;;;;;5072151;28;20245;-45
2023/01/17 10:47:10;;;;;;;6.45;2.80;;;4.90;99.90;;;;;;5072061;28;20621;-45
2023/01/17 10:49:40;;;;;;;4.57;2.85;;;4.90;99.90;;;;;;5051765;28;20182;-46
2023/01/17 10:52:27;;;;;;;7.20;3.33;;;4.90;99.90;;;;;;5071898;28;20178;-45
2023/01/17 10:55:09;;;;;;;7.43;3.25;;;4.90;99.90;;;;;;5071820;28;20288;-45
2023/01/17 10:57:41;;;;;;;5.55;3.35;;;5.00;99.90;;;;;;5071888;28;20154;-45
2023/01/17 11:00:31;;;;;;;5.78;3.40;;;4.90;99.90;;;;;;5072105;28;20186;-45
2023/01/17 11:02:58;;;;;;;6.60;3.65;;;4.70;99.90;;;;;;5071687;28;20214;-45
2023/01/17 11:05:27;;;;;;;7.82;3.38;;;4.70;99.90;;;;;;5071806;28;20162;-45
2023/01/17 11:08:01;;;;;;;7.50;3.40;;;4.70;99.90;;;;;;5072013;28;20593;-46
2023/01/17 11:10:45;;;;;;;7.95;3.67;;;7.80;99.90;;;;;;5071998;28;20165;-45
2023/01/17 11:13:25;;;;;;;8.52;3.78;;;4.50;99.90;;;;;;5071922;28;20172;-45
2023/01/17 11:15:56;;;;;;;11.55;3.40;;;4.60;99.90;;;;;;5071936;28;20233;-45
2023/01/17 11:18:26;;;;;;;7.78;3.90;;;4.60;99.90;;;;;;5072096;28;20199;-46
2023/01/17 11:20:53;;;;;;;10.07;3.35;;;4.60;99.90;;;;;;5072196;28;20181;-45
2023/01/17 11:23:30;;;;;;;10.73;3.88;;;4.70;99.90;;;;;;5072021;28;20173;-45
2023/01/17 11:26:01;;;;;;;9.40;3.95;;;4.70;99.90;;;;;;5071532;28;20168;-45
2023/01/17 11:28:30;;;;;;;4.63;3.55;;;4.70;99.90;;;;;;5071824;28;20170;-45
2023/01/17 11:30:57;;;;;;;10.13;3.42;;;4.70;99.90;;;;;;5071484;28;20162;-45
2023/01/17 11:33:44;;;;;;;8.48;3.17;;;4.70;99.90;;;;;;5071788;28;20532;-45
2023/01/17 11:36:29;;;;;;;4.57;2.65;;;4.80;99.90;;;;;;5071629;28;20521;-45
2023/01/17 11:39:05;;;;;;;11.00;3.15;;;4.80;99.90;;;;;;5071712;28;20251;-45
2023/01/17 11:41:37;;;;;;;6.53;3.47;;;4.80;99.90;;;;;;5071465;28;20166;-45
2023/01/17 11:44:19;;;;;;;7.80;3.70;;;4.90;99.90;;;;;;5071349;28;20520;-45
2023/01/17 11:46:45;;;;;;;9.80;3.63;;;5.00;99.90;;;;;;5071626;28;20166;-45
2023/01/17 11:49:23;;;;;;;6.30;3.00;;;4.90;99.90;;;;;;5071326;28;20174;-45
2023/01/17 11:51:54;;;;;;;12.73;3.92;;;5.00;99.90;;;;;;5071944;28;20275;-46
2023/01/17 11:54:39;;;;;;;12.40;6.38;;;5.00;99.90;;;;;;5071859;28;20210;-45
2023/01/17 11:57:07;;;;;;;10.52;4.32;;;5.00;99.90;;;;;;5071558;28;20337;-45
2023/01/17 11:59:36;;;;;;;13.57;3.67;;;5.00;99.90;;;;;;5071867;28;20190;-45
2023/01/17 12:02:19;;;;;;;10.35;4.43;;;4.90;99.90;;;;;;5075509;28;20542;-45
2023/01/17 12:05:18;;;;;;;6.65;2.92;;;5.00;99.90;;;;;;5074985;28;20583;-45
2023/01/17 12:08:18;;;;;;;7.40;3.45;;;5.10;99.90;;;;;;5073748;28;20510;-46
2023/01/17 12:11:18;;;;;;;10.52;5.18;;;5.00;99.90;;;;;;5074963;28;20162;-45
2023/01/17 12:14:03;;;;;;;8.55;3.55;;;5.10;99.90;;;;;;5067514;28;20225;-45
2023/01/17 12:17:06;;;;;;;8.65;3.00;;;5.20;99.90;;;;;;5073579;28;20196;-45
2023/01/17 12:19:45;;;;;;;8.90;2.55;;;5.30;99.90;;;;;;5073439;28;20154;-46
2023/01/17 12:22:32;;;;;;;8.93;3.55;;;5.20;99.90;;;;;;5074778;28;20165;-46
2023/01/17 12:25:13;;;;;;;8.85;2.88;;;5.10;99.90;;;;;;5074658;28;20528;-45
2023/01/17 12:28:01;;;;;;;7.32;2.83;;;5.20;99.90;;;;;;5074509;28;20205;-45
2023/01/17 12:30:42;;;;;;;8.50;3.10;;;5.30;99.90;;;;;;5074529;28;20649;-45
2023/01/17 12:33:36;;;;;;;8.02;3.00;;;5.40;99.90;;;;;;5074515;28;20170;-46
2023/01/17 12:36:16;;;;;;;16.50;6.38;;;5.40;99.90;;;;;;5074485;28;20758;-45
2023/01/17 12:38:43;;;;;;;9.38;3.22;;;5.40;99.90;;;;;;5074461;28;20673;-45
2023/01/17 12:41:18;;;;;;;7.57;2.78;;;5.40;99.90;;;;;;5074435;28;20212;-45
2023/01/17 12:43:44;;;;;;;10.25;2.67;;;5.50;99.90;;;;;;5074344;28;20195;-45
2023/01/17 12:46:27;;;;;;;10.80;3.67;;;5.50;99.90;;;;;;5074305;28;20634;-45
2023/01/17 12:49:14;;;;;;;11.68;2.83;;;5.60;99.90;;;;;;5074165;28;20197;-45
2023/01/17 12:51:43;;;;;;;10.80;2.70;;;5.60;99.90;;;;;;5074224;28;20165;-45
2023/01/17 12:54:26;;;;;;;8.73;2.88;;;5.70;99.90;;;;;;5074017;28;20241;-45
2023/01/17 12:56:55;;;;;;;8.25;2.40;;;5.80;99.90;;;;;;5074234;28;20166;-45
2023/01/17 12:59:38;;;;;;;10.90;2.63;;;5.70;99.90;;;;;;5074398;28;20185;-45
2023/01/17 13:02:14;;;;;;;6.18;2.08;;;5.70;99.90;;;;;;5074049;28;20166;-45
2023/01/17 13:04:56;;;;;;;11.60;3.58;;;5.70;99.90;;;;;;5073864;28;20342;-45
2023/01/17 13:07:44;;;;;;;9.88;2.13;;;5.50;99.90;;;;;;5074080;28;20223;-45
2023/01/17 13:10:22;;;;;;;10.38;2.33;;;5.30;99.90;;;;;;5073965;28;20166;-45
2023/01/17 13:12:49;;;;;;;7.60;2.05;;;5.40;99.90;;;;;;5073523;28;20516;-46
2023/01/17 13:15:18;;;;;;;6.35;2.22;;;5.40;99.90;;;;;;5073625;28;20247;-45
2023/01/17 13:17:46;;;;;;;3.45;1.73;;;5.20;99.90;;;;;;5073765;28;20154;-46
2023/01/17 13:20:25;;;;;;;5.38;1.58;;;5.20;99.90;;;;;;5074053;28;20192;-45
2023/01/17 13:22:53;;;;;;;4.18;2.03;;;5.20;99.90;;;;;;5074081;28;20223;-46
2023/01/17 13:25:48;;;;;;;4.28;2.05;;;5.20;99.90;;;;;;5074295;28;20170;-45
2023/01/17 13:28:34;;;;;;;6.93;2.03;;;5.20;99.90;;;;;;5072274;28;20185;-46
2023/01/17 13:31:14;;;;;;;5.90;2.40;;;5.20;99.90;;;;;;5073542;28;20166;-45
2023/01/17 13:34:03;;;;;;;5.80;2.03;;;5.30;99.90;;;;;;5073412;28;20248;-46
2023/01/17 13:36:53;;;;;;;12.90;4.05;;;5.30;99.90;;;;;;5073392;28;20182;-45
2023/01/17 13:40:04;;;;;;;16.48;4.93;;;5.20;99.90;;;;;;5073712;28;20200;-46
2023/01/17 13:42:50;;;;;;;14.00;4.78;;;5.20;99.90;;;;;;5072207;28;20158;-45
2023/01/17 13:45:26;;;;;;;7.47;2.50;;;5.20;99.90;;;;;;5073177;28;20174;-45
2023/01/17 13:47:52;;;;;;;10.65;2.80;;;5.20;99.90;;;;;;5073170;28;20166;-45
2023/01/17 13:50:45;;;;;;;5.70;2.10;;;5.30;99.90;;;;;;5073723;28;20208;-46
2023/01/17 13:53:32;;;;;;;13.02;2.60;;;5.30;99.90;;;;;;5068746;28;21142;-46
2023/01/17 13:56:04;;;;;;;11.63;3.80;;;5.30;99.90;;;;;;5072884;28;20780;-45
2023/01/17 13:59:00;;;;;;;19.45;4.13;;;5.30;99.90;;;;;;5072896;28;20225;-45
2023/01/17 14:01:38;;;;;;;9.00;2.65;;;5.30;99.90;;;;;;5073186;28;20178;-45
2023/01/17 14:04:08;;;;;;;15.50;2.00;;;5.30;99.90;;;;;;5072672;28;20221;-45
2023/01/17 14:06:35;;;;;;;4.60;1.75;;;5.30;99.90;;;;;;5072861;28;20173;-45
2023/01/17 14:09:10;;;;;;;4.65;2.15;;;5.20;99.90;;;;;;5072978;28;20198;-45
2023/01/17 14:11:56;;;;;;;6.28;3.15;;;5.30;99.90;;;;;;5072631;28;20251;-45
2023/01/17 14:14:42;;;;;;;11.80;3.70;;;5.30;99.90;;;;;;5071247;28;20569;-45
2023/01/17 14:17:28;;;;;;;7.45;2.78;;;5.20;99.90;;;;;;5071245;28;20166;-45
2023/01/17 14:20:17;;;;;;;7.90;2.92;;;5.30;99.90;;;;;;5072713;28;20223;-45
2023/01/17 14:23:13;;;;;;;10.65;4.40;;;5.20;99.90;;;;;;5070667;28;20177;-45
2023/01/17 14:25:40;;;;;;;10.68;3.97;;;5.20;99.90;;;;;;5072357;28;20162;-45
2023/01/17 14:28:22;;;;;;;10.32;3.90;;;5.20;99.90;;;;;;5072343;28;20174;-45
2023/01/17 14:30:53;;;;;;;9.88;2.95;;;5.10;99.90;;;;;;5072888;28;20235;-45
2023/01/17 14:33:38;;;;;;;9.20;2.20;;;4.90;99.90;;;;;;5072808;28;20174;-45
2023/01/17 14:36:06;;;;;;;5.60;2.15;;;4.70;99.90;;;;;;5072335;28;20206;-45
2023/01/17 14:38:33;;;;;;;7.07;1.80;;;4.70;99.90;;;;;;5072200;28;20174;-45